Time;durP1;ratioP1;P1;durP2;ratioP2;P2;SDS_P1;SDS_P2;PMS_P1;PMS_P2;Temp;Humidity;BMP_temperature;BMP_pressure;BME280_temperature;BME280_humidity;BME280_pressure;Samples;Min_cycle;Max_cycle;Signal;HPM_P1;HPM_P2
2022/03/10 00:02:00;;;;;;;;;29.75;25.50;;;;;12.56;44.55;101472.41;5068962;28;45253;-69
2022/03/10 00:04:25;;;;;;;;;33.75;30.25;;;;;12.76;44.91;101502.47;5064403;28;45194;-67
2022/03/10 00:06:50;;;;;;;;;35.75;31.75;;;;;12.68;44.95;101505.81;5063505;28;45118;-70
2022/03/10 00:09:16;;;;;;;;;31.25;29.25;;;;;12.69;44.75;101513.00;5059261;28;45035;-68
2022/03/10 00:11:41;;;;;;;;;27.75;24.00;;;;;12.70;44.83;101508.53;5063283;28;45119;-72
2022/03/10 00:14:07;;;;;;;;;37.75;31.50;;;;;12.70;45.03;101506.78;5066385;28;45084;-68
2022/03/10 00:16:33;;;;;;;;;32.75;30.00;;;;;12.56;44.44;101475.06;5052434;28;45475;-68
2022/03/10 00:18:58;;;;;;;;;33.00;30.25;;;;;12.76;44.14;101499.78;5059475;28;44996;-66
2022/03/10 00:21:24;;;;;;;;;34.00;30.50;;;;;12.77;43.69;101497.16;5070767;28;45161;-67
2022/03/10 00:23:49;;;;;;;;;35.75;28.00;;;;;12.79;44.77;101505.25;5074800;28;45202;-69
2022/03/10 00:26:14;;;;;;;;;30.00;28.25;;;;;12.77;44.80;101509.63;5056563;28;47837;-72
2022/03/10 00:28:40;;;;;;;;;36.75;28.25;;;;;12.73;44.35;101495.25;5052216;28;45181;-67
2022/03/10 00:31:05;;;;;;;;;30.50;28.25;;;;;12.65;44.67;101495.00;5059517;28;44954;-67
2022/03/10 00:33:31;;;;;;;;;29.50;27.00;;;;;12.66;43.80;101496.81;5052838;28;45043;-66
2022/03/10 00:35:56;;;;;;;;;36.50;28.00;;;;;12.69;43.97;101510.31;5078748;27;45107;-65
2022/03/10 00:38:21;;;;;;;;;27.50;26.25;;;;;12.72;44.21;101513.09;5065919;27;44914;-65
2022/03/10 00:40:47;;;;;;;;;40.00;33.00;;;;;12.74;44.87;101507.78;5058344;28;45175;-65
2022/03/10 00:43:13;;;;;;;;;31.75;28.25;;;;;12.68;44.11;101508.50;5066787;28;45150;-68
2022/03/10 00:45:40;;;;;;;;;37.75;31.75;;;;;12.61;44.21;101519.91;5055396;28;46396;-68
2022/03/10 00:48:05;;;;;;;;;34.50;27.50;;;;;12.50;44.23;101497.22;5062149;28;45018;-64
2022/03/10 00:50:31;;;;;;;;;32.00;29.00;;;;;12.50;44.39;101497.22;5055511;28;45166;-67
2022/03/10 00:52:56;;;;;;;;;34.50;28.00;;;;;12.52;43.63;101495.50;5053758;28;45437;-67
2022/03/10 00:55:22;;;;;;;;;38.50;28.50;;;;;12.62;44.57;101519.06;5048007;28;46102;-68
2022/03/10 00:57:49;;;;;;;;;31.50;27.75;;;;;11.65;44.28;101351.69;5059771;28;45752;-65
2022/03/10 01:00:14;;;;;;;;;34.25;31.00;;;;;12.51;44.04;101513.34;5067516;28;45186;-68
2022/03/10 01:02:40;;;;;;;;;32.75;27.50;;;;;12.52;44.29;101515.19;5073318;28;45098;-68
2022/03/10 01:05:08;;;;;;;;;27.50;25.25;;;;;12.53;43.96;101506.25;5060263;28;45050;-65
2022/03/10 01:07:34;;;;;;;;;31.00;25.00;;;;;12.58;44.28;101508.19;5055414;28;45122;-66
2022/03/10 01:10:01;;;;;;;;;27.75;25.50;;;;;12.64;43.83;101511.06;5052242;28;45099;-66
2022/03/10 01:12:27;;;;;;;;;24.00;23.25;;;;;12.62;43.97;101523.50;5052421;28;45211;-65
2022/03/10 01:14:52;;;;;;;;;24.75;23.00;;;;;12.52;44.02;101498.19;5051153;28;45507;-67
2022/03/10 01:17:18;;;;;;;;;39.75;26.25;;;;;12.53;43.67;101502.69;5064570;28;45233;-66
2022/03/10 01:19:44;;;;;;;;;34.50;29.25;;;;;12.41;43.83;101487.16;5069650;28;44909;-67
2022/03/10 01:22:09;;;;;;;;;39.00;30.25;;;;;12.56;43.62;101513.50;5070971;28;44994;-71
2022/03/10 01:24:35;;;;;;;;;29.75;25.25;;;;;12.17;43.55;101466.75;5070914;28;45212;-69
2022/03/10 01:27:00;;;;;;;;;29.25;28.25;;;;;12.14;43.86;101488.09;5063877;28;45243;-70
2022/03/10 01:29:26;;;;;;;;;37.00;28.00;;;;;12.26;43.63;101522.41;5070969;28;44916;-66
2022/03/10 01:31:51;;;;;;;;;27.00;26.25;;;;;12.23;44.49;101524.97;5071134;28;45020;-69
2022/03/10 01:34:17;;;;;;;;;35.25;29.50;;;;;11.98;44.04;101480.44;5069661;28;45916;-70
2022/03/10 01:36:42;;;;;;;;;32.50;27.25;;;;;12.20;43.53;101515.94;5070295;28;44971;-71
2022/03/10 01:39:08;;;;;;;;;32.75;29.75;;;;;11.94;44.25;101473.16;5069631;28;45196;-66
2022/03/10 01:41:34;;;;;;;;;30.50;24.75;;;;;11.97;44.68;101492.91;5068253;28;45094;-65
2022/03/10 01:44:08;;;;;;;;;36.50;25.00;;;;;12.04;44.09;101514.53;5052537;28;46307;-71
2022/03/10 01:46:34;;;;;;;;;31.50;28.25;;;;;11.93;43.60;101503.47;5049110;28;45329;-66
2022/03/10 01:49:01;;;;;;;;;31.75;27.25;;;;;11.97;44.55;101511.63;5051330;28;44984;-68
2022/03/10 01:51:27;;;;;;;;;33.50;28.75;;;;;11.90;44.19;101509.59;5073783;28;45367;-67
2022/03/10 01:53:53;;;;;;;;;32.00;28.75;;;;;11.87;44.49;101504.13;5063094;28;45689;-68
2022/03/10 01:56:19;;;;;;;;;29.75;27.50;;;;;11.88;44.57;101508.66;5055344;28;45127;-68
2022/03/10 01:58:46;;;;;;;;;32.50;26.50;;;;;11.82;44.07;101502.19;5058123;28;45191;-65
2022/03/10 02:01:12;;;;;;;;;30.00;25.25;;;;;11.89;45.05;101509.53;5054471;28;44997;-67
2022/03/10 02:03:38;;;;;;;;;27.00;24.25;;;;;11.65;44.82;101469.47;5053027;28;45255;-69
2022/03/10 02:06:04;;;;;;;;;36.50;33.25;;;;;11.69;44.09;101488.38;5068403;28;45235;-72
2022/03/10 02:11:14;;;;;;;;;31.75;31.25;;;;;11.58;44.53;101452.28;5066429;28;45050;-65
2022/03/10 02:13:39;;;;;;;;;28.25;21.25;;;;;11.86;44.70;101493.38;5059087;28;46880;-72
2022/03/10 02:19:04;;;;;;;;;27.00;24.25;;;;;11.67;44.37;101452.63;5065879;27;45169;-66
2022/03/10 02:21:30;;;;;;;;;34.50;28.25;;;;;11.91;44.39;101507.81;5052724;28;45554;-65
2022/03/10 02:23:55;;;;;;;;;34.25;29.50;;;;;11.88;44.10;101503.28;5050258;28;45372;-66
2022/03/10 02:26:21;;;;;;;;;34.75;25.25;;;;;11.79;44.36;101489.59;5053171;28;44996;-66
2022/03/10 02:28:47;;;;;;;;;31.75;25.00;;;;;11.86;44.28;101491.59;5051367;28;45233;-66
2022/03/10 02:31:12;;;;;;;;;34.25;25.50;;;;;11.70;44.81;101466.09;5052246;28;45041;-68
2022/03/10 02:33:38;;;;;;;;;32.00;28.50;;;;;11.91;44.31;101499.78;5053303;28;45648;-66
2022/03/10 02:36:04;;;;;;;;;42.25;31.25;;;;;11.56;44.29;101446.88;5066559;28;45145;-66
2022/03/10 02:38:31;;;;;;;;;33.25;30.75;;;;;11.80;44.19;101508.38;5059701;28;45173;-66
2022/03/10 02:40:56;;;;;;;;;34.50;32.00;;;;;11.62;44.33;101471.19;5053726;28;45238;-65
2022/03/10 02:43:23;;;;;;;;;29.50;28.00;;;;;11.48;44.82;101453.75;5052548;28;45163;-67
2022/03/10 02:45:48;;;;;;;;;27.50;23.75;;;;;11.78;44.54;101517.25;5052474;28;45103;-64
2022/03/10 02:48:14;;;;;;;;;33.25;30.00;;;;;11.78;44.75;101512.78;5052187;28;45005;-65
2022/03/10 02:50:40;;;;;;;;;29.75;28.75;;;;;11.61;44.41;101489.88;5049800;28;45221;-67
2022/03/10 02:53:05;;;;;;;;;31.50;26.50;;;;;11.53;44.07;101478.94;5044404;28;45609;-67
2022/03/10 02:55:31;;;;;;;;;26.75;23.25;;;;;11.59;44.94;101510.34;5048970;28;45279;-68
2022/03/10 02:57:56;;;;;;;;;32.25;26.25;;;;;11.36;44.83;101472.97;5052392;28;44992;-67
2022/03/10 03:00:22;;;;;;;;;27.25;24.00;;;;;11.62;44.45;101514.00;5050957;28;45270;-70
2022/03/10 03:02:48;;;;;;;;;32.75;26.25;;;;;11.39;44.63;101480.22;5058131;28;45273;-66
2022/03/10 03:05:14;;;;;;;;;35.00;31.50;;;;;11.64;45.10;101507.81;5052996;28;45057;-69
2022/03/10 03:07:40;;;;;;;;;30.25;24.50;;;;;11.66;44.88;101514.13;5053195;28;45058;-70
2022/03/10 03:10:06;;;;;;;;;29.25;26.75;;;;;11.64;44.54;101516.75;5058696;28;45061;-65
2022/03/10 03:12:33;;;;;;;;;28.25;25.75;;;;;11.47;45.09;101480.50;5054444;28;45163;-73
2022/03/10 03:14:59;;;;;;;;;35.75;29.25;;;;;11.38;44.60;101476.63;5069248;28;45128;-72
2022/03/10 03:17:25;;;;;;;;;30.00;23.75;;;;;11.43;45.11;101482.13;5054347;28;45362;-67
2022/03/10 03:19:52;;;;;;;;;30.50;26.00;;;;;11.55;44.64;101509.31;5054583;28;45348;-70
2022/03/10 03:22:17;;;;;;;;;31.00;27.50;;;;;11.61;44.28;101519.31;5053404;28;46224;-65
2022/03/10 03:24:44;;;;;;;;;25.00;24.00;;;;;11.61;44.48;101519.31;5068465;28;45061;-68
2022/03/10 03:27:10;;;;;;;;;28.00;26.25;;;;;11.56;44.73;101526.28;5057411;28;45337;-71
2022/03/10 03:29:35;;;;;;;;;37.00;28.25;;;;;11.53;44.91;101523.50;5067670;28;45052;-66
2022/03/10 03:32:01;;;;;;;;;28.00;22.00;;;;;11.36;44.96;101502.41;5059832;28;45099;-68
2022/03/10 03:34:26;;;;;;;;;26.25;24.75;;;;;11.44;44.88;101513.38;5072074;28;45229;-71
2022/03/10 03:36:52;;;;;;;;;32.00;25.00;;;;;11.36;45.04;101533.59;5055251;28;44954;-71
2022/03/10 03:39:17;;;;;;;;;27.50;23.50;;;;;11.59;44.59;101534.41;5054817;28;45316;-66
2022/03/10 03:41:42;;;;;;;;;33.50;27.50;;;;;11.12;45.04;101481.06;5069751;27;44986;-67
2022/03/10 03:44:09;;;;;;;;;28.25;23.50;;;;;11.16;44.92;101485.66;5053108;27;45274;-65
2022/03/10 03:46:35;;;;;;;;;40.50;27.25;;;;;11.27;45.15;101502.09;5068278;28;45165;-66
2022/03/10 03:49:00;;;;;;;;;31.00;24.50;;;;;11.23;45.24;101489.44;5052890;28;44867;-65
2022/03/10 03:51:26;;;;;;;;;29.50;25.50;;;;;11.23;45.08;101487.69;5053747;28;45991;-69
2022/03/10 03:53:51;;;;;;;;;26.50;23.50;;;;;11.51;45.25;101534.13;5063809;28;45102;-70
2022/03/10 03:56:17;;;;;;;;;28.75;25.75;;;;;11.34;45.11;101505.91;5072539;28;45184;-67
2022/03/10 03:58:42;;;;;;;;;33.00;26.75;;;;;11.06;45.17;101464.78;5072765;28;45013;-67
2022/03/10 04:01:08;;;;;;;;;25.50;21.25;;;;;11.30;45.36;101517.31;5072091;28;45341;-69
2022/03/10 04:03:33;;;;;;;;;34.50;28.25;;;;;11.31;45.42;101532.53;5072101;28;45060;-67
2022/03/10 04:05:58;;;;;;;;;31.50;29.00;;;;;11.40;45.76;101541.81;5056449;28;45008;-66
2022/03/10 04:08:25;;;;;;;;;36.00;28.25;;;;;11.35;45.92;101537.13;5052739;28;45080;-67
2022/03/10 04:10:51;;;;;;;;;33.50;30.25;;;;;11.28;45.66;101537.78;5051770;28;45528;-66
2022/03/10 04:13:17;;;;;;;;;30.50;27.25;;;;;11.30;45.33;101539.66;5052354;28;45031;-67
2022/03/10 04:15:42;;;;;;;;;30.75;26.25;;;;;11.28;45.55;101543.13;5053451;28;45181;-67
2022/03/10 04:18:07;;;;;;;;;26.00;24.00;;;;;11.09;45.85;101528.16;5052751;28;45087;-66
2022/03/10 04:20:32;;;;;;;;;27.75;24.00;;;;;10.89;45.94;101493.59;5052634;28;45948;-65
2022/03/10 04:22:58;;;;;;;;;30.50;28.25;;;;;10.90;45.88;101494.50;5053068;28;44891;-68
2022/03/10 04:25:24;;;;;;;;;32.75;28.00;;;;;11.17;46.02;101545.38;5052699;28;45435;-66
2022/03/10 04:27:51;;;;;;;;;32.00;27.75;;;;;11.10;46.04;101541.59;5068632;28;45111;-67
2022/03/10 04:30:18;;;;;;;;;26.50;24.75;;;;;11.12;46.34;101550.59;5052686;28;45022;-67
2022/03/10 04:32:46;;;;;;;;;30.25;26.25;;;;;11.12;46.21;101550.59;5052893;28;44928;-66
2022/03/10 04:35:13;;;;;;;;;32.25;28.25;;;;;11.06;46.28;101553.03;5057608;28;45103;-71
2022/03/10 04:37:39;;;;;;;;;35.00;28.25;;;;;10.93;46.48;101532.94;5065035;27;44957;-69
2022/03/10 04:40:06;;;;;;;;;39.25;31.00;;;;;10.97;46.81;101558.03;5051863;28;45064;-67
2022/03/10 04:42:36;;;;;;;;;39.75;33.00;;;;;10.73;46.95;101528.63;5055429;28;45199;-65
2022/03/10 04:45:02;;;;;;;;;30.75;29.75;;;;;10.44;46.60;101469.59;5051869;28;45105;-70
2022/03/10 04:47:27;;;;;;;;;30.50;25.25;;;;;10.70;47.39;101541.00;5052596;28;45551;-66
2022/03/10 04:49:53;;;;;;;;;28.75;23.75;;;;;10.76;47.42;101548.34;5058943;28;45171;-65
2022/03/10 04:52:18;;;;;;;;;28.50;27.25;;;;;10.42;47.40;101501.59;5066965;27;45241;-67
2022/03/10 04:54:44;;;;;;;;;41.75;29.75;;;;;10.67;47.54;101553.31;5057317;28;44895;-65
2022/03/10 04:57:09;;;;;;;;;32.75;26.50;;;;;10.56;47.47;101527.94;5049959;28;45014;-71
2022/03/10 04:59:34;;;;;;;;;29.50;25.75;;;;;10.62;47.50;101549.56;5049640;28;45175;-66
2022/03/10 05:02:00;;;;;;;;;39.75;29.50;;;;;10.68;47.85;101553.38;5051359;28;45166;-66
2022/03/10 05:04:25;;;;;;;;;28.50;24.00;;;;;10.63;47.79;101557.66;5065969;28;45014;-66
2022/03/10 05:06:50;;;;;;;;;32.25;27.00;;;;;10.65;47.88;101553.25;5070912;28;44856;-70
2022/03/10 05:09:16;;;;;;;;;26.00;22.00;;;;;10.53;47.93;101542.13;5070735;28;45105;-71
2022/03/10 05:11:41;;;;;;;;;32.00;26.25;;;;;10.62;48.21;101553.13;5069954;28;45209;-65
2022/03/10 05:14:07;;;;;;;;;36.25;32.25;;;;;10.58;48.41;101550.31;5070330;28;44906;-66
2022/03/10 05:16:33;;;;;;;;;24.50;24.50;;;;;10.36;48.51;101521.81;5070490;28;45060;-67
2022/03/10 05:18:58;;;;;;;;;32.00;29.00;;;;;10.57;48.25;101556.50;5070211;28;45688;-64
2022/03/10 05:21:23;;;;;;;;;35.25;31.00;;;;;10.37;48.12;101508.53;5058597;28;45491;-68
2022/03/10 05:23:52;;;;;;;;;33.75;22.25;;;;;10.46;48.43;101522.25;5052230;28;45006;-65
2022/03/10 05:26:18;;;;;;;;;34.25;26.25;;;;;10.62;47.96;101554.91;5050955;28;45124;-69
2022/03/10 05:28:43;;;;;;;;;30.25;27.75;;;;;10.63;47.68;101541.63;5050525;28;45207;-66
2022/03/10 05:31:08;;;;;;;;;35.00;25.75;;;;;10.69;48.60;101543.59;5057427;28;45423;-69
2022/03/10 05:33:34;;;;;;;;;24.50;24.50;;;;;10.74;48.12;101551.81;5054215;28;45065;-68
2022/03/10 05:35:59;;;;;;;;;26.50;24.25;;;;;10.50;48.07;101507.25;5054038;28;45141;-67
2022/03/10 05:38:24;;;;;;;;;33.25;26.50;;;;;10.67;47.83;101534.63;5054746;28;45172;-65
2022/03/10 05:40:50;;;;;;;;;31.00;23.75;;;;;10.49;47.66;101505.41;5072383;27;45399;-70
2022/03/10 05:43:15;;;;;;;;;32.25;22.50;;;;;10.79;47.72;101552.88;5055085;28;45282;-65
2022/03/10 05:45:40;;;;;;;;;24.50;23.00;;;;;10.40;47.80;101479.28;5057909;28;45311;-65
2022/03/10 05:48:06;;;;;;;;;31.50;26.75;;;;;10.68;47.27;101528.44;5068385;28;45698;-67
2022/03/10 05:50:31;;;;;;;;;33.75;25.00;;;;;10.62;47.13;101521.06;5069982;28;45097;-65
2022/03/10 05:52:57;;;;;;;;;29.50;24.50;;;;;10.77;47.80;101547.47;5054575;28;45222;-66
2022/03/10 05:55:23;;;;;;;;;28.00;24.50;;;;;10.56;47.23;101510.19;5063854;28;45268;-67
2022/03/10 05:57:49;;;;;;;;;28.75;25.50;;;;;10.58;47.75;101512.91;5064863;28;45357;-68
2022/03/10 06:00:15;;;;;;;;;27.50;26.75;;;;;10.58;48.07;101528.94;5062813;27;45045;-68
2022/03/10 06:02:41;;;;;;;;;26.00;23.50;;;;;10.70;48.28;101556.13;5054326;28;45037;-66
2022/03/10 06:05:07;;;;;;;;;34.00;28.25;;;;;10.65;48.09;101541.69;5055559;28;45147;-69
2022/03/10 06:07:33;;;;;;;;;29.25;26.50;;;;;10.25;48.30;101490.22;5056326;28;45093;-71
2022/03/10 06:09:58;;;;;;;;;34.25;27.25;;;;;10.70;48.75;101553.44;5054455;28;44983;-69
2022/03/10 06:12:27;;;;;;;;;29.75;26.50;;;;;10.49;48.58;101518.78;5055847;28;44983;-67
2022/03/10 06:15:04;;;;;;;;;25.75;22.50;;;;;10.43;48.66;101514.13;5064284;28;45046;-68
2022/03/10 06:17:30;;;;;;;;;27.75;26.50;;;;;10.57;49.12;101556.50;5056310;28;45673;-67
2022/03/10 06:19:56;;;;;;;;;31.75;26.00;;;;;10.58;49.11;101544.97;5053913;28;45166;-69
2022/03/10 06:22:27;;;;;;;;;25.50;22.50;;;;;10.53;49.15;101536.78;5053040;28;45163;-71
2022/03/10 06:24:52;;;;;;;;;35.25;26.00;;;;;10.33;48.85;101518.19;5054651;28;44961;-65
2022/03/10 06:27:22;;;;;;;;;37.25;32.00;;;;;10.54;48.84;101557.28;5052101;28;45728;-65
2022/03/10 06:29:48;;;;;;;;;28.00;24.00;;;;;10.43;48.99;101564.88;5059076;28;45495;-67
2022/03/10 06:32:16;;;;;;;;;33.00;28.50;;;;;10.34;49.70;101567.16;5053650;28;45341;-66
2022/03/10 06:34:41;;;;;;;;;53.50;40.75;;;;;10.08;49.98;101516.28;5051415;28;45422;-68
2022/03/10 06:37:08;;;;;;;;;41.25;33.50;;;;;9.99;49.85;101507.88;5051626;28;45334;-66
2022/03/10 06:39:34;;;;;;;;;47.25;35.00;;;;;10.25;49.59;101548.09;5051202;28;45241;-66
2022/03/10 06:42:00;;;;;;;;;33.25;28.50;;;;;10.32;49.39;101547.50;5047376;28;45250;-66
2022/03/10 06:44:26;;;;;;;;;38.00;27.75;;;;;10.41;49.71;101563.91;5036832;28;45532;-68
2022/03/10 06:46:51;;;;;;;;;30.75;25.75;;;;;10.42;49.73;101564.81;5052989;28;46365;-67
2022/03/10 06:49:17;;;;;;;;;57.50;47.00;;;;;10.46;49.98;101567.69;5065399;28;45189;-67
2022/03/10 06:51:42;;;;;;;;;33.00;31.00;;;;;10.46;49.29;101569.41;5048334;28;45510;-68
2022/03/10 06:54:08;;;;;;;;;41.25;32.75;;;;;10.27;49.90;101541.03;5048432;28;45428;-66
2022/03/10 06:56:34;;;;;;;;;34.00;29.00;;;;;10.46;49.26;101575.69;5035923;28;45384;-65
2022/03/10 06:59:00;;;;;;;;;33.50;25.00;;;;;10.47;49.50;101571.25;5036000;28;45409;-65
2022/03/10 07:01:25;;;;;;;;;37.25;30.50;;;;;10.30;49.74;101562.53;5038218;28;45491;-67
2022/03/10 07:03:51;;;;;;;;;37.00;33.25;;;;;10.37;49.95;101574.41;5046546;28;45286;-68
2022/03/10 07:06:17;;;;;;;;;37.50;28.75;;;;;10.15;50.13;101539.69;5047309;28;46772;-68
2022/03/10 07:08:43;;;;;;;;;35.75;27.50;;;;;10.41;49.82;101579.00;5067632;28;45588;-67
2022/03/10 07:11:08;;;;;;;;;40.25;32.75;;;;;10.36;49.76;101575.25;5064087;28;45334;-66
2022/03/10 07:13:35;;;;;;;;;30.25;26.00;;;;;10.30;50.58;101590.16;5058665;28;45258;-65
2022/03/10 07:16:00;;;;;;;;;35.50;27.00;;;;;10.26;50.37;101579.25;5068189;28;47107;-69
2022/03/10 07:18:26;;;;;;;;;44.75;32.75;;;;;10.27;50.49;101595.34;5069173;28;44996;-66
2022/03/10 07:20:51;;;;;;;;;41.25;29.50;;;;;10.20;50.60;101589.72;5069302;28;45110;-69
2022/03/10 07:23:16;;;;;;;;;32.25;29.25;;;;;10.10;50.26;101575.06;5057511;28;45598;-67
2022/03/10 07:25:43;;;;;;;;;40.75;32.75;;;;;10.33;50.90;101598.31;5054347;28;45653;-66
2022/03/10 07:28:09;;;;;;;;;36.25;33.25;;;;;10.28;50.53;101585.59;5070277;27;45024;-69
2022/03/10 07:30:34;;;;;;;;;41.50;32.50;;;;;10.27;50.36;101589.09;5042828;27;45581;-66
2022/03/10 07:32:59;;;;;;;;;40.00;32.75;;;;;10.39;51.05;101602.09;5034929;28;45543;-66
2022/03/10 07:35:25;;;;;;;;;49.50;41.00;;;;;10.10;50.43;101540.38;5037158;28;45412;-68
2022/03/10 07:37:53;;;;;;;;;46.25;32.75;;;;;10.48;50.81;101590.03;5038516;28;45404;-67
2022/03/10 07:40:20;;;;;;;;;39.50;33.00;;;;;10.43;50.58;101593.38;5049957;28;45586;-67
2022/03/10 07:42:46;;;;;;;;;40.75;32.25;;;;;10.43;50.80;101599.59;5059127;28;45379;-66
2022/03/10 07:45:11;;;;;;;;;51.50;33.25;;;;;10.38;50.89;101579.81;5069259;28;46326;-68
2022/03/10 07:47:37;;;;;;;;;45.00;32.75;;;;;10.48;51.38;101600.69;5068916;28;45124;-69
2022/03/10 07:50:06;;;;;;;;;42.50;26.75;;;;;10.44;50.93;101601.44;5070455;28;44995;-70
2022/03/10 07:52:32;;;;;;;;;36.75;28.50;;;;;10.49;50.86;101604.28;5063260;28;45022;-71
2022/03/10 07:54:58;;;;;;;;;37.25;30.75;;;;;10.48;51.12;101606.03;5054706;28;45746;-69
2022/03/10 07:57:23;;;;;;;;;33.25;30.25;;;;;10.28;50.75;101551.78;5057733;28;45377;-69
2022/03/10 07:59:49;;;;;;;;;40.75;34.00;;;;;10.62;50.78;101609.25;5064180;28;45700;-73
2022/03/10 08:02:14;;;;;;;;;32.75;26.50;;;;;10.74;50.41;101600.84;5055670;28;45500;-73
2022/03/10 08:04:39;;;;;;;;;39.50;36.00;;;;;10.81;50.73;101605.56;5053918;28;46350;-70
2022/03/10 08:07:05;;;;;;;;;51.25;36.25;;;;;10.69;50.18;101581.00;5053809;28;45543;-68
2022/03/10 08:09:31;;;;;;;;;49.50;35.25;;;;;10.80;50.29;101606.41;5053926;28;45406;-67
2022/03/10 08:11:56;;;;;;;;;30.50;27.00;;;;;10.86;50.23;101595.97;5053863;28;45597;-66
2022/03/10 08:14:22;;;;;;;;;28.50;25.50;;;;;10.95;50.48;101599.84;5053292;28;45550;-67
2022/03/10 08:16:47;;;;;;;;;28.50;26.00;;;;;10.93;49.83;101601.56;5053563;28;45373;-71
2022/03/10 08:19:12;;;;;;;;;33.25;27.00;;;;;10.91;50.18;101617.53;5053800;28;45424;-73
2022/03/10 08:21:38;;;;;;;;;36.25;31.75;;;;;10.73;50.13;101574.06;5054024;28;45574;-69
2022/03/10 08:24:04;;;;;;;;;36.00;32.75;;;;;10.89;50.27;101597.84;5053098;28;45488;-70
2022/03/10 08:26:29;;;;;;;;;40.25;32.25;;;;;10.87;50.97;101599.53;5053349;28;45433;-71
2022/03/10 08:28:55;;;;;;;;;36.75;28.75;;;;;10.70;50.30;101545.44;5053171;28;45366;-67
2022/03/10 08:31:21;;;;;;;;;28.25;28.25;;;;;11.01;50.31;101594.75;5052375;28;45427;-66
2022/03/10 08:33:48;;;;;;;;;43.00;33.00;;;;;11.04;50.12;101597.53;5053364;28;47750;-70
2022/03/10 08:36:14;;;;;;;;;48.50;31.50;;;;;10.87;49.97;101576.41;5053364;28;45609;-69
2022/03/10 08:38:40;;;;;;;;;38.50;32.25;;;;;11.14;49.82;101589.00;5053510;28;45403;-70
2022/03/10 08:41:05;;;;;;;;;27.25;24.50;;;;;11.06;49.55;101563.72;5053375;28;45476;-68
2022/03/10 08:43:32;;;;;;;;;40.25;33.25;;;;;11.04;49.13;101536.03;5052973;28;45905;-68
2022/03/10 08:45:58;;;;;;;;;46.00;38.00;;;;;11.43;49.67;101586.47;5053245;28;45371;-69
2022/03/10 08:48:24;;;;;;;;;42.50;33.75;;;;;11.14;48.93;101530.16;5046973;28;45413;-68
2022/03/10 08:50:50;;;;;;;;;40.75;34.25;;;;;11.51;49.03;101587.66;5053253;28;45498;-70
2022/03/10 08:53:17;;;;;;;;;47.75;34.00;;;;;11.64;48.52;101582.75;5053236;28;46254;-68
2022/03/10 08:55:43;;;;;;;;;46.25;33.50;;;;;11.72;48.86;101582.16;5053181;28;45307;-66
2022/03/10 08:58:08;;;;;;;;;46.00;35.00;;;;;11.77;49.10;101569.84;5053094;28;45416;-69
2022/03/10 09:00:34;;;;;;;;;33.25;27.25;;;;;11.60;48.12;101529.13;5053420;28;45238;-67
2022/03/10 09:03:00;;;;;;;;;35.75;27.50;;;;;11.73;48.57;101537.56;5052270;28;46301;-68
2022/03/10 09:05:26;;;;;;;;;34.00;30.00;;;;;12.06;47.72;101582.44;5055914;28;45502;-67
2022/03/10 09:07:51;;;;;;;;;36.25;29.00;;;;;11.54;47.40;101479.81;5072196;27;45388;-71
2022/03/10 09:10:17;;;;;;;;;29.75;27.75;;;;;12.12;47.93;101582.66;5057260;28;45468;-68
2022/03/10 09:12:42;;;;;;;;;34.50;32.00;;;;;10.86;47.50;101370.50;5056778;28;45638;-71
2022/03/10 09:15:09;;;;;;;;;34.00;24.50;;;;;12.13;47.63;101579.13;5056665;28;45639;-68
2022/03/10 09:17:34;;;;;;;;;37.00;31.75;;;;;12.21;48.18;101568.66;5057130;28;45575;-68
2022/03/10 09:20:00;;;;;;;;;40.50;30.50;;;;;12.33;47.52;101569.97;5056897;28;45252;-66
2022/03/10 09:22:25;;;;;;;;;32.00;27.50;;;;;12.31;47.28;101541.31;5053965;28;45989;-70
2022/03/10 09:24:54;;;;;;;;;33.25;28.25;;;;;12.55;46.86;101567.97;5037383;28;45390;-66
2022/03/10 09:27:19;;;;;;;;;32.50;27.25;;;;;12.68;46.67;101582.66;5037277;28;45347;-68
2022/03/10 09:29:45;;;;;;;;;30.25;23.50;;;;;12.44;46.38;101518.47;5036702;28;45808;-67
2022/03/10 09:32:11;;;;;;;;;24.25;24.25;;;;;12.86;46.66;101572.50;5035585;28;46183;-70
2022/03/10 09:34:36;;;;;;;;;38.25;30.00;;;;;12.95;45.80;101571.88;5036862;28;45579;-67
2022/03/10 09:37:02;;;;;;;;;34.75;28.00;;;;;13.03;46.28;101572.09;5037154;28;45512;-68
2022/03/10 09:39:27;;;;;;;;;58.75;46.25;;;;;13.02;45.95;101581.94;5037226;28;45477;-70
2022/03/10 09:41:55;;;;;;;;;37.25;31.50;;;;;13.11;46.36;101565.19;5035576;28;46203;-69
2022/03/10 09:44:21;;;;;;;;;26.75;25.25;;;;;13.18;45.75;101563.59;5037027;28;45319;-68
2022/03/10 09:46:50;;;;;;;;;32.50;26.50;;;;;13.25;45.64;101557.53;5036795;28;45368;-67
2022/03/10 09:49:16;;;;;;;;;36.50;28.75;;;;;13.33;44.95;101560.47;5050466;28;46008;-69
2022/03/10 09:51:41;;;;;;;;;29.50;26.50;;;;;13.43;45.20;101562.56;5056185;28;45416;-72
2022/03/10 09:54:07;;;;;;;;;30.50;23.50;;;;;13.56;44.65;101556.66;5055522;28;45377;-72
2022/03/10 09:56:36;;;;;;;;;27.25;24.00;;;;;13.70;44.72;101537.31;5056277;28;45462;-68
2022/03/10 09:59:05;;;;;;;;;29.25;25.00;;;;;13.91;44.23;101543.25;5055917;28;45494;-68
2022/03/10 10:01:30;;;;;;;;;31.50;25.50;;;;;14.07;44.05;101552.56;5055571;28;45486;-69
2022/03/10 10:03:55;;;;;;;;;29.25;25.00;;;;;14.05;43.78;101534.63;5055896;28;47820;-67
2022/03/10 10:06:20;;;;;;;;;20.00;20.00;;;;;14.23;43.80;101553.88;5056174;28;45608;-68
2022/03/10 10:08:56;;;;;;;;;27.75;27.25;;;;;14.32;43.75;101553.19;5056053;28;45365;-66
2022/03/10 10:11:33;;;;;;;;;29.75;24.25;;;;;14.46;43.59;101546.34;5055458;28;46057;-69
2022/03/10 10:13:59;;;;;;;;;32.00;25.00;;;;;14.34;43.33;101516.50;5055701;28;45415;-70
2022/03/10 10:16:24;;;;;;;;;26.25;24.25;;;;;14.57;43.04;101542.13;5054393;28;45382;-67
2022/03/10 10:18:58;;;;;;;;;28.25;24.00;;;;;14.47;43.30;101506.91;5056225;28;45528;-68
2022/03/10 10:21:25;;;;;;;;;29.25;24.50;;;;;14.78;43.00;101532.75;5050091;28;45991;-70
2022/03/10 10:23:53;;;;;;;;;35.75;27.00;;;;;14.80;42.41;101504.13;5055206;28;45550;-67
2022/03/10 10:26:20;;;;;;;;;29.25;27.25;;;;;15.13;42.12;101535.28;5055815;28;45393;-67
2022/03/10 10:28:47;;;;;;;;;24.50;22.25;;;;;15.23;42.00;101531.00;5056245;28;45450;-72
2022/03/10 10:31:26;;;;;;;;;28.25;23.50;;;;;15.01;41.85;101490.16;5055835;28;45508;-67
2022/03/10 10:34:00;;;;;;;;;31.25;23.75;;;;;15.22;41.81;101500.47;5055569;28;45476;-70
2022/03/10 10:36:32;;;;;;;;;28.50;25.25;;;;;15.41;41.71;101522.34;5056270;28;45769;-68
2022/03/10 10:39:13;;;;;;;;;26.50;25.25;;;;;15.52;41.54;101520.75;5039510;28;45366;-70
2022/03/10 10:41:40;;;;;;;;;26.50;24.25;;;;;15.57;41.85;101521.75;5035690;28;46660;-71
2022/03/10 10:44:08;;;;;;;;;24.00;23.25;;;;;15.24;41.35;101452.03;5036001;28;45531;-66
2022/03/10 10:46:37;;;;;;;;;28.00;25.50;;;;;15.58;41.17;101490.38;5035951;28;45920;-68
2022/03/10 10:49:08;;;;;;;;;25.00;22.50;;;;;15.76;41.40;101506.88;5035826;28;45464;-66
2022/03/10 10:51:38;;;;;;;;;34.00;27.50;;;;;15.86;41.22;101501.66;5035819;28;46137;-68
2022/03/10 10:54:07;;;;;;;;;27.50;22.50;;;;;15.90;40.76;101493.63;5035897;28;45472;-68
2022/03/10 10:56:34;;;;;;;;;22.75;22.75;;;;;15.94;41.54;101494.59;5035563;28;45338;-69
2022/03/10 10:59:02;;;;;;;;;24.50;21.75;;;;;15.91;41.21;101479.28;5036102;28;45394;-69
2022/03/10 11:01:37;;;;;;;;;23.75;22.00;;;;;15.72;40.94;101420.53;5035154;28;45361;-67
2022/03/10 11:04:05;;;;;;;;;30.50;25.25;;;;;16.17;40.49;101482.38;5048598;28;45235;-68
2022/03/10 11:06:32;;;;;;;;;27.50;24.00;;;;;15.93;40.67;101426.28;5049543;28;45545;-68
2022/03/10 11:08:58;;;;;;;;;23.25;20.75;;;;;15.92;40.60;101431.66;5042601;28;45602;-68
2022/03/10 11:11:24;;;;;;;;;24.50;22.25;;;;;16.30;40.86;101471.75;5070403;28;45350;-68